• Join FlightAware (Why Join?)
  • Login
  • US Flag 
04:43AM EDT


 

Airport Tracker/Info


-or-


 

Live Flight TrackerFlight Track Log ✈ KAP927 ✈ 16-Aug-2013 ✈ KALB - KBOS

Flight Track Log - Related Links

Times and Time Zones

All times are in EDT time to prevent confusion due to time zone crossing. See the KAP927 flight status page for this flight to view local times or setup timezone preferences in your user account.

Time Position Orientation Groundspeed Altitude Reporting Facility
EDT Latitude Longitude Course Direction KTS MPH feet Rate Location/Type
08:27AM 42.7456 -73.7067 98° East 138 159 1,700  Level Boston Center
08:28AM 42.7400 -73.6528 98° East 145 167 2,300 540 Climbing Boston Center
08:29AM 42.7322 -73.5989 101° East 144 166 2,900 540 Climbing Boston Center
08:30AM 42.7244 -73.5450 101° East 142 163 3,500 540 Climbing Boston Center
08:31AM 42.7167 -73.4856 100° East 146 168 4,100 480 Climbing Boston Center
08:32AM 42.7089 -73.4178 99° East 153 176 4,600 360 Climbing Boston Center
08:33AM 42.6989 -73.3553 102° East 166 191 5,000 360 Climbing Boston Center
08:34AM 42.6889 -73.2875 101° East 166 191 5,400 360 Climbing Boston Center
08:35AM 42.6831 -73.2308 98° East 161 185 5,800 360 Climbing Boston Center
08:36AM 42.6733 -73.1544 100° East 166 191 6,200 300 Climbing Boston Center
08:37AM 42.6653 -73.0953 100° East 166 191 6,500 360 Climbing Boston Center
08:38AM 42.6553 -73.0244 101° East 171 197 7,000 360 Climbing Boston Center
08:40AM 42.6472 -72.9511 98° East 171 197 7,300 180 Climbing Boston Center
08:41AM 42.6372 -72.8747 100° East 177 204 7,500 60 Climbing Boston Center
08:42AM 42.6292 -72.8042 99° East 184 212 7,500  Level Boston Center
08:43AM 42.6167 -72.7336 104° East 189 217 7,500 -60 Level Boston Center
08:44AM 42.6086 -72.6631 99° East 184 212 7,400 -60 Descending Boston Center
08:45AM 42.5983 -72.5953 102° East 178 205 7,400  Level Boston Center
08:46AM 42.5900 -72.5275 99° East 178 205 7,400  Level Boston Center
08:47AM 42.5797 -72.4625 102° East 178 205 7,500  Climbing Boston Center
08:48AM 42.5714 -72.3950 99° East 178 205 7,500  Level Boston Center
08:49AM 42.5608 -72.3244 101° East 178 205 7,500 -60 Level Boston Center
08:50AM 42.5503 -72.2542 102° East 184 212 7,400  Descending Boston Center
08:51AM 42.5439 -72.1864 97° East 184 212 7,500  Climbing Boston Center
08:52AM 42.5333 -72.1189 102° East 184 212 7,500  Level Boston Center
08:53AM 42.5228 -72.0542 102° East 179 206 7,500  Level Boston Center
08:54AM 42.5119 -71.9867 102° East 179 206 7,500 -60 Level Boston Center
08:55AM 42.5033 -71.9192 100° East 179 206 7,400  Descending Boston Center
08:56AM 42.4947 -71.8544 100° East 179 206 7,500 -240 Climbing Boston Center
08:57AM 42.4881 -71.7842 97° East 179 206 7,000 -540 Descending Boston Center
08:58AM 42.4794 -71.7081 99° East 193 222 6,500 -480 Descending Boston Center
08:59AM 42.4706 -71.6322 99° East 198 228 6,100 -480 Descending Boston Center
08:59AM 42.4667 -71.5667 95° East 204 235 5,600 -600 Descending KA90
09:01AM 42.4667 -71.4833 90° East 207 238 5,000 -600 Descending KA90
09:01AM 42.4833 -71.4167 71° East 200 230 4,500 -360 Descending KA90
09:02AM 42.4833 -71.3500 90° East 186 214 4,400 -60 Descending KA90
09:03AM 42.5000 -71.2833 71° East 178 205 4,400  Level KA90
09:05AM 42.5167 -71.2167 71° East 174 200 4,500  Climbing KA90
09:05AM 42.5333 -71.1500 71° East 172 198 4,400 -360 Descending KA90
09:06AM 42.5500 -71.0833 71° East 190 219 3,900 -780 Descending KA90
09:07AM 42.5000 -71.0333 144° Southeast 189 217 2,900 -960 Descending KA90
09:08AM 42.4500 -71.0167 166° South 186 214 2,000 -900 Descending KA90
09:09AM 42.4167 -70.9833 144° Southeast 164 189 1,100 -900 Descending KA90
09:10AM 42.3833 -71.0000 200° South 125 144 200 2,040 Descending KA90
09:13AM 42.2803 -70.9556 162° South 165 190 7,500 2,340 Climbing Boston Center
09:14AM 42.2239 -70.9403 169° South 165 190 7,500  Level Boston Center
09:16AM 42.3100 -70.9810 341° North  Level FlightAware Approximate
09:23AM 42.3500 -71.0000 340° North  Level FlightAware Approximate
09:24AM 42.3630 -71.0064 340° North  Level Estimated
09:25AM 42.3630 -71.0064 340° North  Level Estimated
09:26AM 42.3630 -71.0064 340° North  Level Estimated